Terminal Aerodrome Forecast
Issued by NWS Binghamton, NY

Home | Current Version | Previous Version | Text Only | Print | Product List | Glossary On
Versions: 1 2 3 4 5 6 7 8 9 10 11 12 13 14 15 16 17 18 19 20 21
000
FTUS41 KBGM 291300 AAA
TAFSYR
TAF AMD
KSYR 291357Z 2914/3012 30005KT P6SM SCT025 BKN045
     FM291600 31010KT P6SM SCT050
     FM300000 30003KT P6SM SKC=

USA.gov is the U.S. government's official web portal to all federal, state and local government web resources and services.